createdAt,value
2022-11-28T00:01:03.089Z,5.53
2022-11-28T00:05:07.797Z,6.20
2022-11-28T00:10:08.354Z,5.35
2022-11-28T00:15:08.021Z,5.45
2022-11-28T00:20:07.738Z,9.48
2022-11-28T00:25:08.462Z,5.55
2022-11-28T00:30:08.184Z,5.97
2022-11-28T00:35:07.885Z,6.40
2022-11-28T00:40:08.636Z,6.13
2022-11-28T00:45:08.731Z,7.75
2022-11-28T00:50:08.470Z,6.97
2022-11-28T00:55:08.195Z,8.50
2022-11-28T01:00:07.926Z,5.60
2022-11-28T01:05:07.747Z,8.35
2022-11-28T01:10:08.496Z,8.38
2022-11-28T01:15:08.213Z,5.07
2022-11-28T01:20:07.950Z,6.03
2022-11-28T01:25:08.937Z,5.93
2022-11-28T01:30:08.653Z,5.78
2022-11-28T01:35:08.367Z,6.93
2022-11-28T01:40:08.054Z,7.57
2022-11-28T01:45:07.778Z,6.95
2022-11-28T01:50:08.679Z,10.35
2022-11-28T01:55:08.396Z,6.70
2022-11-28T02:00:08.131Z,7.53
2022-11-28T02:05:07.855Z,7.07
2022-11-28T02:10:08.593Z,7.38
2022-11-28T02:15:12.236Z,7.65
2022-11-28T02:20:07.977Z,9.02
2022-11-28T02:25:07.683Z,6.75
2022-11-28T02:30:08.424Z,6.70
2022-11-28T02:35:08.179Z,7.55
2022-11-28T02:40:10.446Z,7.45
2022-11-28T02:45:08.150Z,8.05
2022-11-28T02:50:07.825Z,6.97
2022-11-28T02:55:08.538Z,5.55
2022-11-28T03:00:08.274Z,5.82
2022-11-28T03:05:07.990Z,5.95
2022-11-28T03:10:07.792Z,8.23
2022-11-28T03:15:08.510Z,10.18
2022-11-28T03:20:08.236Z,10.15
2022-11-28T03:25:07.974Z,11.93
2022-11-28T03:30:07.685Z,7.65
2022-11-28T03:35:08.394Z,6.18
2022-11-28T03:40:08.111Z,7.70
2022-11-28T03:45:07.823Z,7.47
2022-11-28T03:50:08.535Z,7.78
2022-11-28T03:55:08.272Z,8.35
2022-11-28T04:00:07.964Z,6.93
2022-11-28T04:05:17.682Z,0
2022-11-28T04:10:08.411Z,10.65
2022-11-28T04:15:08.121Z,8.45
2022-11-28T04:20:07.842Z,7.93
2022-11-28T04:25:08.554Z,10.10
2022-11-28T04:30:08.234Z,7.93
2022-11-28T04:35:07.960Z,7.93
2022-11-28T04:40:07.701Z,7.20
2022-11-28T04:45:08.383Z,7.55
2022-11-28T04:50:08.122Z,9.50
2022-11-28T04:55:07.822Z,7.47
2022-11-28T05:00:08.540Z,9.50
2022-11-28T05:05:02.307Z,9.00
2022-11-28T05:10:02.137Z,9.80
2022-11-28T05:15:02.388Z,7.18
2022-11-28T05:20:02.232Z,8.20
2022-11-28T05:25:01.983Z,8.23
2022-11-28T05:30:01.880Z,9.70
2022-11-28T05:35:02.735Z,9.35
2022-11-28T05:40:02.535Z,10.13
2022-11-28T05:45:02.396Z,8.75
2022-11-28T05:50:02.210Z,9.35
2022-11-28T05:55:02.036Z,10.57
2022-11-28T06:00:01.860Z,8.63
2022-11-28T06:05:20.988Z,10.63
2022-11-28T06:10:01.835Z,8.90
2022-11-28T06:15:02.668Z,9.75
2022-11-28T06:20:02.473Z,12.90
2022-11-28T06:25:02.221Z,10.00
2022-11-28T06:30:02.056Z,10.20
2022-11-28T06:35:01.885Z,8.10
2022-11-28T06:40:02.746Z,14.75
2022-11-28T06:45:02.615Z,8.25
2022-11-28T06:50:02.355Z,12.15
2022-11-28T06:55:02.215Z,8.75
2022-11-28T07:00:02.066Z,9.50
2022-11-28T07:05:01.983Z,8.60
2022-11-28T07:10:01.924Z,10.95
2022-11-28T07:15:02.770Z,9.88
2022-11-28T07:20:02.788Z,9.88
2022-11-28T07:25:02.738Z,9.63
2022-11-28T07:30:02.633Z,9.30
2022-11-28T07:35:02.573Z,9.90
2022-11-28T07:40:02.549Z,9.27
2022-11-28T07:45:02.266Z,9.00
2022-11-28T07:50:02.091Z,7.60
2022-11-28T07:55:01.906Z,8.48
2022-11-28T08:00:02.745Z,8.60
2022-11-28T08:05:02.551Z,11.65
2022-11-28T08:10:02.391Z,8.65
2022-11-28T08:15:02.130Z,7.57
2022-11-28T08:20:02.017Z,8.52
2022-11-28T08:25:02.033Z,11.00
2022-11-28T08:30:01.934Z,8.73
2022-11-28T08:35:02.805Z,10.30
2022-11-28T08:40:02.736Z,10.18
2022-11-28T08:45:02.566Z,9.25
2022-11-28T08:50:02.351Z,9.63
2022-11-28T08:55:02.194Z,7.78
2022-11-28T09:00:02.061Z,8.85
2022-11-28T09:05:01.946Z,8.73
2022-11-28T09:10:01.921Z,8.88
2022-11-28T09:15:02.754Z,9.82
2022-11-28T09:20:04.890Z,7.70
2022-11-28T09:25:02.690Z,10.27
2022-11-28T09:30:02.503Z,11.43
2022-11-28T09:35:02.185Z,14.43
2022-11-28T09:40:14.059Z,12.02
2022-11-28T09:45:02.015Z,9.45
2022-11-28T09:50:01.889Z,10.48
2022-11-28T09:55:02.897Z,11.25
2022-11-28T10:00:02.839Z,10.10
2022-11-28T10:05:02.819Z,7.07
2022-11-28T10:10:02.939Z,10.90
2022-11-28T10:15:02.925Z,8.77
2022-11-28T10:20:12.849Z,0
2022-11-28T10:25:02.819Z,10.68
2022-11-28T10:30:02.621Z,7.97
2022-11-28T10:35:02.451Z,8.80
2022-11-28T10:40:02.338Z,10.10
2022-11-28T10:45:02.039Z,8.35
2022-11-28T10:50:01.831Z,7.47
2022-11-28T10:55:02.719Z,8.05
2022-11-28T11:00:02.535Z,6.85
2022-11-28T11:05:02.422Z,9.10
2022-11-28T11:10:07.306Z,8.57
2022-11-28T11:15:12.079Z,0
2022-11-28T11:20:01.918Z,8.50
2022-11-28T11:25:02.678Z,10.07
2022-11-28T11:30:02.554Z,8.15
2022-11-28T11:35:02.347Z,6.78
2022-11-28T11:40:02.169Z,6.75
2022-11-28T11:45:02.019Z,6.47
2022-11-28T11:50:01.840Z,6.18
2022-11-28T11:55:02.669Z,8.00
2022-11-28T12:00:02.511Z,6.90
2022-11-28T12:05:02.523Z,6.72
2022-11-28T12:10:04.758Z,6.93
2022-11-28T12:15:01.789Z,6.30
2022-11-28T12:20:02.982Z,8.07
2022-11-28T12:25:01.718Z,6.07
2022-11-28T12:30:12.579Z,0
2022-11-28T12:35:02.508Z,5.15
2022-11-28T12:40:02.431Z,7.45
2022-11-28T12:45:02.401Z,7.10
2022-11-28T12:50:02.310Z,6.15
2022-11-28T12:55:02.172Z,6.72
2022-11-28T13:00:08.146Z,9.75
2022-11-28T13:05:02.526Z,9.75
2022-11-28T13:10:02.363Z,9.68
2022-11-28T13:15:02.215Z,8.32
2022-11-28T13:20:11.892Z,0
2022-11-28T13:25:02.771Z,7.95
2022-11-28T13:30:02.611Z,5.70
2022-11-28T13:35:02.580Z,6.05
2022-11-28T13:40:02.465Z,5.93
2022-11-28T13:45:02.778Z,5.13
2022-11-28T13:50:12.659Z,0
2022-11-28T13:55:02.584Z,5.40
2022-11-28T14:00:02.420Z,5.57
2022-11-28T14:05:02.204Z,5.95
2022-11-28T14:10:02.077Z,6.28
2022-11-28T14:15:01.835Z,5.25
2022-11-28T14:20:02.704Z,6.28
2022-11-28T14:25:07.000Z,5.63
2022-11-28T14:30:01.832Z,5.13
2022-11-28T14:35:02.834Z,7.00
2022-11-28T14:40:02.650Z,5.05
2022-11-28T14:45:08.190Z,4.72
2022-11-28T14:50:05.122Z,4.85
2022-11-28T14:55:02.135Z,4.50
2022-11-28T15:00:01.967Z,3.97
2022-11-28T15:05:01.792Z,6.40
2022-11-28T15:10:07.071Z,3.67
2022-11-28T15:15:02.577Z,4.22
2022-11-28T15:20:02.569Z,3.75
2022-11-28T15:25:02.629Z,4.63
2022-11-28T15:30:02.647Z,4.50
2022-11-28T15:35:06.431Z,4.60
2022-11-28T15:40:02.315Z,4.97
2022-11-28T15:45:02.289Z,4.57
2022-11-28T15:50:02.925Z,4.13
2022-11-28T15:55:02.893Z,4.00
2022-11-28T16:00:02.717Z,4.30
2022-11-28T16:05:02.511Z,4.00
2022-11-28T16:10:02.378Z,5.30
2022-11-28T16:15:02.235Z,5.05
2022-11-28T16:20:02.125Z,4.88
2022-11-28T16:25:01.924Z,4.72
2022-11-28T16:30:12.786Z,0
2022-11-28T16:35:02.606Z,6.07
2022-11-28T16:40:02.428Z,4.72
2022-11-28T16:45:02.298Z,4.82
2022-11-28T16:50:05.117Z,5.88
2022-11-28T16:55:01.914Z,6.30
2022-11-28T17:00:02.859Z,5.50
2022-11-28T17:05:02.729Z,4.43
2022-11-28T17:10:02.677Z,3.97
2022-11-28T17:15:02.441Z,4.25
2022-11-28T17:20:02.516Z,6.05
2022-11-28T17:25:02.362Z,5.18
2022-11-28T17:30:02.203Z,5.07
2022-11-28T17:35:02.087Z,6.85
2022-11-28T17:40:01.992Z,4.45
2022-11-28T17:45:01.899Z,5.15
2022-11-28T17:50:02.762Z,5.10
2022-11-28T17:55:06.573Z,6.65
2022-11-28T18:00:02.277Z,6.38
2022-11-28T18:05:02.299Z,10.15
2022-11-28T18:10:02.276Z,10.82
2022-11-28T18:15:02.387Z,7.07
2022-11-28T18:20:02.198Z,7.03
2022-11-28T18:25:02.317Z,5.68
2022-11-28T18:30:02.211Z,6.50
2022-11-28T18:35:02.158Z,6.07
2022-11-28T18:40:05.158Z,4.50
2022-11-28T18:45:02.735Z,6.40
2022-11-28T18:50:02.606Z,5.47
2022-11-28T18:55:02.651Z,5.95
2022-11-28T19:00:02.524Z,10.10
2022-11-28T19:05:02.443Z,6.65
2022-11-28T19:10:02.352Z,5.70
2022-11-28T19:15:02.863Z,6.32
2022-11-28T19:20:02.857Z,6.78
2022-11-28T19:25:03.021Z,7.95
2022-11-28T19:30:01.870Z,6.90
2022-11-28T19:35:02.678Z,6.20
2022-11-28T19:40:03.155Z,8.07
2022-11-28T19:45:02.179Z,8.85
2022-11-28T19:50:02.057Z,7.22
2022-11-28T19:55:01.879Z,7.80
2022-11-28T20:00:02.747Z,7.90
2022-11-28T20:05:02.561Z,8.07
2022-11-28T20:10:02.387Z,10.15
2022-11-28T20:15:02.286Z,7.95
2022-11-28T20:20:02.219Z,7.72
2022-11-28T20:25:01.986Z,6.80
2022-11-28T20:30:01.808Z,7.80
2022-11-28T20:35:02.725Z,7.07
2022-11-28T20:40:02.735Z,6.72
2022-11-28T20:45:02.754Z,7.20
2022-11-28T20:50:02.687Z,6.30
2022-11-28T20:55:02.801Z,7.97
2022-11-28T21:00:02.679Z,7.18
2022-11-28T21:05:02.687Z,9.43
2022-11-28T21:10:02.601Z,8.20
2022-11-28T21:15:02.426Z,10.25
2022-11-28T21:20:02.298Z,10.77
2022-11-28T21:25:02.132Z,12.32
2022-11-28T21:30:01.875Z,11.48
2022-11-28T21:35:04.660Z,15.20
2022-11-28T21:40:02.719Z,14.25
2022-11-28T21:45:02.640Z,18.17
2022-11-28T21:50:02.487Z,19.27
2022-11-28T21:55:02.319Z,18.58
2022-11-28T22:00:02.082Z,20.63
2022-11-28T22:05:07.797Z,19.90
2022-11-28T22:10:08.550Z,18.42
2022-11-28T22:15:08.271Z,18.42
2022-11-28T22:20:08.016Z,18.35
2022-11-28T22:25:07.729Z,14.85
2022-11-28T22:30:08.464Z,17.25
2022-11-28T22:35:08.185Z,19.60
2022-11-28T22:40:07.926Z,18.95
2022-11-28T22:45:08.700Z,17.88
2022-11-28T22:50:08.381Z,15.23
2022-11-28T22:55:08.103Z,14.15
2022-11-28T23:00:07.888Z,18.13
2022-11-28T23:05:08.585Z,17.38
2022-11-28T23:10:08.280Z,14.73
2022-11-28T23:15:08.000Z,18.00
2022-11-28T23:20:07.716Z,21.40
2022-11-28T23:25:08.414Z,25.55
2022-11-28T23:30:08.357Z,34.95
2022-11-28T23:35:08.068Z,33.00
2022-11-28T23:40:07.799Z,35.63
2022-11-28T23:45:08.551Z,57.50
2022-11-28T23:50:08.322Z,51.42
2022-11-28T23:55:08.027Z,51.30
